Uspallata, Argentina
Current Conditions -  °F | °C
As of 8:00 AM on Sunday 23 Nov 2014 (Local Time) from SAME Reporting Station
Clear Clear  
Wind Chill: 70°   Ceiling: Unl
Heat Index: 70°   Visibility: 6mi
Dew Point: 46°   Wind: 0mph
Humidity: 43%   Direction: NA
Pressure: 29.77"   Gusts: NA
Location:  32.59°S, 69.35°W
Report Text: SAME 231100Z 00000KT CAVOK 21/08 Q1008
Loading
Personal Weather Stations






























Interactive Weather Map New forecast layout! Learn more

10-Day Weather Forecast

Advertisements
Track Severe Weather on mobile